Airfield :
LOGIN :

Register | Disclaimer

   EN    FR    IT 

 










Legend :    VFR   Marginal VFR   IFR   Intensive IFR   Very Intensive IFR
Visi :
Ceiling :
>= 8 km
>= 3000ft
5 to 8 km
1000 to 3000 ft
1500m to 5 km
500 to 1000 ft
800 to 1500m
200 to 500 ft
< 800m
< 200 ft
Symbols :   Thunderstorms  Fog  Heavy snow  Heavy precipitations  Wind > 20 kt
SIGMETs :     Misc.  Thunderstorms  Icing  Turbulence  Mountain Waves  Volcanic Ashes






- Airport Elevation : 46 ft
- IATA code : SNN


EINN - Shannon

CURRENT METAR :
  • 271730Z 23013KT 9999 FEW010 SCT015 FEW018CB BKN028 04/02 Q0987 NOSIG

EXPIRED METARs :
  • 271700Z 22017KT 9999 FEW008 SCT018CB BKN028 04/02 Q0987 NOSIG
  • 271630Z 22017KT 9999 FEW008 SCT018CB BKN060 04/02 Q0987 NOSIG
  • 271600Z 23011KT 9999 FEW006 SCT018CB BKN028 04/02 Q0987 RETSRAGS NOSIG
  • 271530Z 18006KT 150V220 4000 SHRA FEW008 SCT018CB BKN026 05/03 Q0987 BECMG 9999
  • 271500Z 17007KT 9999 -SHRA FEW014 FEW018CB BKN030 05/03 Q0988 TEMPO 4000 SHRA BKN010

TAF TAF EINN
Valid from the 27 at 18:00 until the 28 at 18:00 UTC


271700Z 2718/2818 23009KT 9999 FEW012 SCT020CB BKN030
TEMPO 2718/2810 4000 SHRASN BKN018CB
PROB40
TEMPO 2719/2808 0800 SHSN BKN006
BECMG 2809/2811 29012G25KT
TEMPO 2810/2815 SHRA BKN018CB



MET'MAP, your aeronautical weather chart ! - Copyright ORBIFLY December 2007 - Disclaimer

ORBIFLY MET'MAP TEAM :

Programming & Development : Alexandra Zaïnal
Concept & original design : Baudouin d'Aumeries
Assistance for programming : Marc-Olivier Méhu
Technical & hardware support : Manuel Goepfert

Contact : metmap@orbifly.com




SOURCES & CREDITS :

   NOAA